SAS9136 LMML-EKCH
Flight info
| Callsign | SAS9136 |
|---|---|
| Flight time | 3h 4m |
| Altitude | 40000 |
| Route | GZO M622 SOPIR DCT ADEXI DCT GIKIN DCT GIKEB DCT EKPEB DCT BRENO DCT KONIN DCT EXITI DCT EMBOX DCT NOBRI M726 ROSOK Q296 MONAK |
| Aircraft | A359/H-SDE2E3GHIJ3J4J5LM1ORWXY/LB1D1 |
Departure
| Time | 2026-04-26 07:02 |
|---|---|
| Airport | Malta International Airport (LMML) |
Arrival
| Time | 2026-04-26 10:06 |
|---|---|
| Airport | Copenhagen Kastrup Airport (EKCH) |
| Time | Latitude | Longitude | Altitude | Speed | Heading |
|---|---|---|---|---|---|
| 2026-04-26 06:42 | 35.85633 | 14.47098 | 263 ft | 0 kts | 231° |
| 2026-04-26 06:54 | 35.85631 | 14.47097 | 263 ft | 1 kts | 221° |
| 2026-04-26 06:54 | 35.85624 | 14.47098 | 263 ft | 1 kts | 182° |
| 2026-04-26 06:54 | 35.85618 | 14.47108 | 265 ft | 2 kts | 124° |
| 2026-04-26 06:55 | 35.85624 | 14.47122 | 263 ft | 3 kts | 60° |
| 2026-04-26 06:55 | 35.85652 | 14.47180 | 263 ft | 11 kts | 75° |
| 2026-04-26 06:55 | 35.85657 | 14.47298 | 261 ft | 17 kts | 89° |
| 2026-04-26 06:55 | 35.85657 | 14.47465 | 260 ft | 21 kts | 90° |
| 2026-04-26 06:56 | 35.85685 | 14.47620 | 260 ft | 19 kts | 59° |
| 2026-04-26 06:56 | 35.85743 | 14.47731 | 260 ft | 9 kts | 68° |
| 2026-04-26 06:56 | 35.85725 | 14.47779 | 262 ft | 5 kts | 132° |
| 2026-04-26 06:56 | 35.85712 | 14.47796 | 265 ft | 0 kts | 133° |
| 2026-04-26 06:57 | 35.85677 | 14.47840 | 273 ft | 16 kts | 134° |
| 2026-04-26 06:57 | 35.85568 | 14.47980 | 276 ft | 25 kts | 134° |
| 2026-04-26 06:57 | 35.85431 | 14.48150 | 274 ft | 30 kts | 135° |
| 2026-04-26 06:57 | 35.85276 | 14.48341 | 274 ft | 33 kts | 135° |
| 2026-04-26 06:58 | 35.85106 | 14.48550 | 272 ft | 36 kts | 135° |
| 2026-04-26 06:58 | 35.84919 | 14.48782 | 269 ft | 40 kts | 135° |
| 2026-04-26 06:58 | 35.84714 | 14.49035 | 266 ft | 43 kts | 135° |
| 2026-04-26 06:58 | 35.84496 | 14.49304 | 265 ft | 45 kts | 135° |
| 2026-04-26 06:59 | 35.84269 | 14.49584 | 262 ft | 45 kts | 135° |
| 2026-04-26 06:59 | 35.84046 | 14.49859 | 258 ft | 46 kts | 135° |
| 2026-04-26 06:59 | 35.83817 | 14.50144 | 258 ft | 42 kts | 135° |
| 2026-04-26 06:59 | 35.83652 | 14.50347 | 256 ft | 30 kts | 135° |
| 2026-04-26 07:00 | 35.83558 | 14.50544 | 254 ft | 22 kts | 105° |
| 2026-04-26 07:00 | 35.83523 | 14.50694 | 253 ft | 12 kts | 112° |
| 2026-04-26 07:00 | 35.83506 | 14.50724 | 253 ft | 2 kts | 130° |
| 2026-04-26 07:00 | 35.83472 | 14.50733 | 252 ft | 7 kts | 198° |
| 2026-04-26 07:01 | 35.83431 | 14.50678 | 252 ft | 11 kts | 229° |
| 2026-04-26 07:01 | 35.83415 | 14.50642 | 252 ft | 3 kts | 262° |
| 2026-04-26 07:01 | 35.83426 | 14.50619 | 252 ft | 4 kts | 315° |
| 2026-04-26 07:01 | 35.83459 | 14.50582 | 253 ft | 12 kts | 316° |
| 2026-04-26 07:02 | 35.83703 | 14.50279 | 257 ft | 94 kts | 315° |
| 2026-04-26 07:02 | 35.84353 | 14.49470 | 288 ft | 167 kts | 313° |
| 2026-04-26 07:02 | 35.85192 | 14.48473 | 1246 ft | 165 kts | 314° |
| 2026-04-26 07:02 | 35.86036 | 14.47439 | 1895 ft | 182 kts | 310° |
| 2026-04-26 07:03 | 35.86871 | 14.46125 | 2216 ft | 213 kts | 304° |
| 2026-04-26 07:03 | 35.87793 | 14.44549 | 2602 ft | 239 kts | 304° |
| 2026-04-26 07:03 | 35.88811 | 14.42819 | 3163 ft | 255 kts | 307° |
| 2026-04-26 07:03 | 35.89921 | 14.41082 | 3981 ft | 260 kts | 308° |
| 2026-04-26 07:04 | 35.91042 | 14.39310 | 4840 ft | 265 kts | 307° |
| 2026-04-26 07:04 | 35.92179 | 14.37493 | 5632 ft | 269 kts | 307° |
| 2026-04-26 07:04 | 35.93340 | 14.35684 | 6520 ft | 269 kts | 310° |
| 2026-04-26 07:04 | 35.94558 | 14.33921 | 7332 ft | 271 kts | 311° |
| 2026-04-26 07:05 | 35.95782 | 14.32159 | 8181 ft | 271 kts | 311° |
| 2026-04-26 07:05 | 35.96846 | 14.30617 | 8935 ft | 270 kts | 311° |
| 2026-04-26 07:05 | 35.98069 | 14.28838 | 9730 ft | 273 kts | 311° |
| 2026-04-26 07:05 | 35.99301 | 14.27038 | 10442 ft | 278 kts | 310° |
| 2026-04-26 07:06 | 36.00588 | 14.25154 | 10783 ft | 296 kts | 310° |
| 2026-04-26 07:06 | 36.01951 | 14.23156 | 11122 ft | 311 kts | 310° |
| 2026-04-26 07:06 | 36.03395 | 14.21109 | 11651 ft | 319 kts | 314° |
| 2026-04-26 07:06 | 36.05058 | 14.19261 | 12303 ft | 324 kts | 320° |
| 2026-04-26 07:07 | 36.06861 | 14.17551 | 12960 ft | 328 kts | 323° |
| 2026-04-26 07:07 | 36.08734 | 14.15908 | 13617 ft | 332 kts | 324° |
| 2026-04-26 07:07 | 36.10645 | 14.14280 | 14232 ft | 336 kts | 324° |
| 2026-04-26 07:07 | 36.12584 | 14.12628 | 14776 ft | 340 kts | 324° |
| 2026-04-26 07:08 | 36.14533 | 14.10948 | 15373 ft | 343 kts | 324° |
| 2026-04-26 07:08 | 36.16492 | 14.09239 | 15940 ft | 348 kts | 323° |
| 2026-04-26 07:08 | 36.18477 | 14.07490 | 16487 ft | 352 kts | 323° |
| 2026-04-26 07:08 | 36.20474 | 14.05721 | 17113 ft | 355 kts | 323° |
| 2026-04-26 07:09 | 36.22487 | 14.03932 | 17706 ft | 357 kts | 323° |
| 2026-04-26 07:09 | 36.24516 | 14.02126 | 18248 ft | 361 kts | 322° |
| 2026-04-26 07:09 | 36.26568 | 14.00298 | 18805 ft | 364 kts | 323° |
| 2026-04-26 07:09 | 36.28629 | 13.98462 | 19350 ft | 365 kts | 323° |
| 2026-04-26 07:10 | 36.34848 | 13.92920 | 21005 ft | 369 kts | 323° |
| 2026-04-26 07:11 | 36.39025 | 13.89191 | 22102 ft | 371 kts | 322° |
| 2026-04-26 07:11 | 36.41124 | 13.87316 | 22652 ft | 372 kts | 322° |
| 2026-04-26 07:11 | 36.43228 | 13.85435 | 23148 ft | 376 kts | 322° |
| 2026-04-26 07:11 | 36.45329 | 13.83556 | 23658 ft | 377 kts | 322° |
| 2026-04-26 07:12 | 36.47459 | 13.81648 | 24123 ft | 379 kts | 322° |
| 2026-04-26 07:12 | 36.49602 | 13.79728 | 24551 ft | 381 kts | 322° |
| 2026-04-26 07:12 | 36.51760 | 13.77797 | 24995 ft | 383 kts | 322° |
| 2026-04-26 07:12 | 36.53929 | 13.75854 | 25445 ft | 385 kts | 322° |
| 2026-04-26 07:13 | 36.56106 | 13.73899 | 25900 ft | 387 kts | 322° |
| 2026-04-26 07:13 | 36.58297 | 13.71929 | 26389 ft | 389 kts | 322° |
| 2026-04-26 07:13 | 36.60498 | 13.69949 | 26881 ft | 392 kts | 322° |
| 2026-04-26 07:13 | 36.62715 | 13.67953 | 27392 ft | 394 kts | 322° |
| 2026-04-26 07:14 | 36.64943 | 13.65947 | 27922 ft | 397 kts | 322° |
| 2026-04-26 07:14 | 36.67185 | 13.63927 | 28453 ft | 399 kts | 322° |
| 2026-04-26 07:14 | 36.69442 | 13.61893 | 29003 ft | 402 kts | 322° |
| 2026-04-26 07:14 | 36.71723 | 13.59835 | 29467 ft | 407 kts | 322° |
| 2026-04-26 07:15 | 36.74026 | 13.57756 | 30021 ft | 410 kts | 322° |
| 2026-04-26 07:15 | 36.76345 | 13.55661 | 30543 ft | 413 kts | 322° |
| 2026-04-26 07:15 | 36.78684 | 13.53545 | 30979 ft | 417 kts | 322° |
| 2026-04-26 07:15 | 36.81043 | 13.51411 | 31404 ft | 421 kts | 322° |
| 2026-04-26 07:16 | 36.83429 | 13.49250 | 31836 ft | 425 kts | 322° |
| 2026-04-26 07:16 | 36.85834 | 13.47071 | 32266 ft | 429 kts | 322° |
| 2026-04-26 07:16 | 36.88260 | 13.44871 | 32689 ft | 433 kts | 322° |
| 2026-04-26 07:16 | 36.90705 | 13.42651 | 33089 ft | 437 kts | 322° |
| 2026-04-26 07:17 | 36.93142 | 13.40437 | 33503 ft | 440 kts | 322° |
| 2026-04-26 07:17 | 36.95623 | 13.38182 | 34057 ft | 441 kts | 322° |
| 2026-04-26 07:17 | 36.98101 | 13.35928 | 34584 ft | 440 kts | 322° |
| 2026-04-26 07:17 | 37.00571 | 13.33681 | 35132 ft | 438 kts | 322° |
| 2026-04-26 07:18 | 37.03030 | 13.31440 | 35703 ft | 436 kts | 322° |
| 2026-04-26 07:18 | 37.05481 | 13.29205 | 36254 ft | 435 kts | 322° |
| 2026-04-26 07:18 | 37.07922 | 13.26977 | 36781 ft | 434 kts | 322° |
| 2026-04-26 07:18 | 37.10358 | 13.24750 | 37298 ft | 433 kts | 322° |
| 2026-04-26 07:19 | 37.12790 | 13.22526 | 37795 ft | 432 kts | 322° |
| 2026-04-26 07:19 | 37.15216 | 13.20306 | 38311 ft | 431 kts | 322° |
| 2026-04-26 07:19 | 37.17632 | 13.18093 | 38798 ft | 430 kts | 322° |
| 2026-04-26 07:19 | 37.20044 | 13.15882 | 39186 ft | 429 kts | 322° |
| 2026-04-26 07:20 | 37.22452 | 13.13673 | 39546 ft | 429 kts | 321° |
| 2026-04-26 07:20 | 37.24862 | 13.11459 | 39843 ft | 430 kts | 321° |
| 2026-04-26 07:20 | 37.27275 | 13.09241 | 40098 ft | 431 kts | 321° |
| 2026-04-26 07:21 | 37.32188 | 13.04942 | 40167 ft | 431 kts | 328° |
| 2026-04-26 07:21 | 37.37760 | 13.02140 | 40164 ft | 436 kts | 344° |
| 2026-04-26 07:22 | 37.43765 | 13.00844 | 40165 ft | 439 kts | 349° |
| 2026-04-26 07:22 | 37.49822 | 12.99832 | 40165 ft | 439 kts | 349° |
| 2026-04-26 07:23 | 37.55892 | 12.98839 | 40161 ft | 440 kts | 349° |
| 2026-04-26 07:23 | 37.61960 | 12.97813 | 40159 ft | 440 kts | 349° |
| 2026-04-26 07:24 | 37.68018 | 12.96766 | 40160 ft | 440 kts | 349° |
| 2026-04-26 07:24 | 37.74040 | 12.95721 | 40160 ft | 440 kts | 349° |
| 2026-04-26 07:25 | 37.80099 | 12.94668 | 40156 ft | 440 kts | 349° |
| 2026-04-26 07:25 | 37.86162 | 12.93614 | 40157 ft | 440 kts | 349° |
| 2026-04-26 07:26 | 37.92219 | 12.92559 | 40158 ft | 440 kts | 349° |
| 2026-04-26 07:26 | 37.98279 | 12.91502 | 40156 ft | 440 kts | 349° |
| 2026-04-26 07:27 | 38.04342 | 12.90442 | 40158 ft | 440 kts | 349° |
| 2026-04-26 07:27 | 38.10404 | 12.89382 | 40157 ft | 440 kts | 349° |
| 2026-04-26 07:28 | 38.15442 | 12.88499 | 40156 ft | 440 kts | 349° |
| 2026-04-26 07:28 | 38.21504 | 12.87435 | 40156 ft | 440 kts | 349° |
| 2026-04-26 07:29 | 38.27571 | 12.86368 | 40158 ft | 440 kts | 349° |
| 2026-04-26 07:29 | 38.33641 | 12.85299 | 40158 ft | 440 kts | 349° |
| 2026-04-26 07:30 | 38.39709 | 12.84228 | 40160 ft | 440 kts | 349° |
| 2026-04-26 07:30 | 38.45778 | 12.83156 | 40164 ft | 440 kts | 349° |
| 2026-04-26 07:31 | 38.51851 | 12.82080 | 40164 ft | 441 kts | 349° |
| 2026-04-26 07:31 | 38.57924 | 12.81004 | 40162 ft | 441 kts | 349° |
| 2026-04-26 07:32 | 38.63998 | 12.79925 | 40159 ft | 441 kts | 349° |
| 2026-04-26 07:32 | 38.70072 | 12.78843 | 40165 ft | 441 kts | 349° |
| 2026-04-26 07:33 | 38.76158 | 12.77759 | 40165 ft | 441 kts | 349° |
| 2026-04-26 07:33 | 38.82240 | 12.76673 | 40168 ft | 441 kts | 349° |
| 2026-04-26 07:34 | 38.88325 | 12.75584 | 40173 ft | 441 kts | 349° |
| 2026-04-26 07:34 | 38.94410 | 12.74494 | 40170 ft | 442 kts | 349° |
| 2026-04-26 07:35 | 39.00497 | 12.73401 | 40173 ft | 442 kts | 349° |
| 2026-04-26 07:35 | 39.06582 | 12.72308 | 40173 ft | 442 kts | 349° |
| 2026-04-26 07:36 | 39.12671 | 12.71211 | 40177 ft | 442 kts | 350° |
| 2026-04-26 07:36 | 39.18756 | 12.70113 | 40173 ft | 442 kts | 350° |
| 2026-04-26 07:37 | 39.24841 | 12.69013 | 40170 ft | 442 kts | 350° |
| 2026-04-26 07:37 | 39.30926 | 12.67911 | 40171 ft | 442 kts | 350° |
| 2026-04-26 07:38 | 39.36973 | 12.66814 | 40171 ft | 442 kts | 350° |
| 2026-04-26 07:38 | 39.43056 | 12.65709 | 40171 ft | 442 kts | 350° |
| 2026-04-26 07:39 | 39.49144 | 12.64601 | 40170 ft | 442 kts | 350° |
| 2026-04-26 07:39 | 39.55228 | 12.63492 | 40170 ft | 442 kts | 350° |
| 2026-04-26 07:40 | 39.61312 | 12.62380 | 40171 ft | 442 kts | 350° |
| 2026-04-26 07:40 | 39.67397 | 12.61267 | 40170 ft | 442 kts | 350° |
| 2026-04-26 07:41 | 39.73484 | 12.60151 | 40168 ft | 442 kts | 350° |
| 2026-04-26 07:41 | 39.79568 | 12.59034 | 40172 ft | 442 kts | 350° |
| 2026-04-26 07:42 | 39.85651 | 12.57915 | 40168 ft | 441 kts | 350° |
| 2026-04-26 07:42 | 39.91735 | 12.56794 | 40166 ft | 441 kts | 350° |
| 2026-04-26 07:43 | 39.97817 | 12.55671 | 40164 ft | 441 kts | 350° |
| 2026-04-26 07:43 | 40.03900 | 12.54546 | 40165 ft | 441 kts | 350° |
| 2026-04-26 07:44 | 40.09979 | 12.53419 | 40164 ft | 441 kts | 350° |
| 2026-04-26 07:44 | 40.16060 | 12.52290 | 40166 ft | 441 kts | 350° |
| 2026-04-26 07:45 | 40.22140 | 12.51160 | 40166 ft | 441 kts | 350° |
| 2026-04-26 07:45 | 40.28216 | 12.50027 | 40163 ft | 441 kts | 351° |
| 2026-04-26 07:46 | 40.34290 | 12.48894 | 40163 ft | 441 kts | 351° |
| 2026-04-26 07:46 | 40.40355 | 12.47760 | 40161 ft | 441 kts | 351° |
| 2026-04-26 07:47 | 40.46427 | 12.46623 | 40165 ft | 440 kts | 351° |
| 2026-04-26 07:47 | 40.52488 | 12.45485 | 40156 ft | 440 kts | 351° |
| 2026-04-26 07:48 | 40.58547 | 12.44346 | 40162 ft | 440 kts | 351° |
| 2026-04-26 07:48 | 40.64606 | 12.43205 | 40160 ft | 440 kts | 351° |
| 2026-04-26 07:49 | 40.70659 | 12.42063 | 40154 ft | 439 kts | 351° |
| 2026-04-26 07:49 | 40.76705 | 12.40920 | 40150 ft | 439 kts | 351° |
| 2026-04-26 07:50 | 40.85726 | 12.39211 | 40148 ft | 439 kts | 351° |
| 2026-04-26 07:50 | 40.91770 | 12.38063 | 40151 ft | 439 kts | 351° |
| 2026-04-26 07:51 | 40.97808 | 12.36914 | 40154 ft | 438 kts | 350° |
| 2026-04-26 07:51 | 41.03840 | 12.35764 | 40149 ft | 438 kts | 350° |
| 2026-04-26 07:52 | 41.09874 | 12.34612 | 40151 ft | 438 kts | 350° |
| 2026-04-26 07:52 | 41.15905 | 12.33458 | 40140 ft | 437 kts | 350° |
| 2026-04-26 07:53 | 41.21927 | 12.32304 | 40144 ft | 437 kts | 350° |
| 2026-04-26 07:53 | 41.27949 | 12.31147 | 40151 ft | 437 kts | 350° |
| 2026-04-26 07:54 | 41.33968 | 12.29989 | 40149 ft | 437 kts | 350° |
| 2026-04-26 07:54 | 41.39980 | 12.28831 | 40145 ft | 436 kts | 350° |
| 2026-04-26 07:55 | 41.45989 | 12.27670 | 40143 ft | 436 kts | 350° |
| 2026-04-26 07:55 | 41.51997 | 12.26508 | 40137 ft | 436 kts | 350° |
| 2026-04-26 07:56 | 41.57997 | 12.25345 | 40134 ft | 436 kts | 350° |
| 2026-04-26 07:56 | 41.64001 | 12.24179 | 40138 ft | 436 kts | 350° |
| 2026-04-26 07:57 | 41.70003 | 12.23011 | 40156 ft | 436 kts | 350° |
| 2026-04-26 07:57 | 41.76000 | 12.21842 | 40165 ft | 436 kts | 350° |
| 2026-04-26 07:58 | 41.81997 | 12.20671 | 40156 ft | 435 kts | 350° |
| 2026-04-26 07:58 | 41.87990 | 12.19498 | 40156 ft | 435 kts | 350° |
| 2026-04-26 07:59 | 41.93981 | 12.18323 | 40238 ft | 435 kts | 350° |
| 2026-04-26 07:59 | 41.99972 | 12.17147 | 40239 ft | 434 kts | 349° |
| 2026-04-26 08:00 | 42.05946 | 12.15972 | 40227 ft | 434 kts | 349° |
| 2026-04-26 08:00 | 42.11878 | 12.14803 | 40207 ft | 433 kts | 349° |
| 2026-04-26 08:01 | 42.17842 | 12.13624 | 40185 ft | 433 kts | 349° |
| 2026-04-26 08:01 | 42.23811 | 12.12442 | 40134 ft | 434 kts | 349° |
| 2026-04-26 08:02 | 42.29779 | 12.11258 | 40132 ft | 433 kts | 349° |
| 2026-04-26 08:02 | 42.35747 | 12.10073 | 40131 ft | 433 kts | 349° |
| 2026-04-26 08:03 | 42.41712 | 12.08886 | 40130 ft | 433 kts | 349° |
| 2026-04-26 08:03 | 42.47678 | 12.07696 | 40129 ft | 433 kts | 349° |
| 2026-04-26 08:04 | 42.53633 | 12.06506 | 40130 ft | 433 kts | 349° |
| 2026-04-26 08:04 | 42.59596 | 12.05312 | 40140 ft | 433 kts | 350° |
| 2026-04-26 08:05 | 42.65563 | 12.04232 | 40138 ft | 433 kts | 353° |
| 2026-04-26 08:05 | 42.71581 | 12.03605 | 40144 ft | 434 kts | 354° |
| 2026-04-26 08:06 | 42.77608 | 12.03034 | 40148 ft | 434 kts | 354° |
| 2026-04-26 08:06 | 42.83629 | 12.02395 | 40155 ft | 434 kts | 353° |
| 2026-04-26 08:07 | 42.89642 | 12.01715 | 40154 ft | 434 kts | 353° |
| 2026-04-26 08:07 | 42.95656 | 12.01023 | 40154 ft | 434 kts | 353° |
| 2026-04-26 08:08 | 43.01670 | 12.00333 | 40159 ft | 433 kts | 353° |
| 2026-04-26 08:08 | 43.07670 | 11.99645 | 40154 ft | 433 kts | 353° |
| 2026-04-26 08:09 | 43.13670 | 11.98956 | 40156 ft | 432 kts | 353° |
| 2026-04-26 08:09 | 43.19668 | 11.98267 | 40157 ft | 432 kts | 353° |
| 2026-04-26 08:10 | 43.25662 | 11.97577 | 40156 ft | 432 kts | 353° |
| 2026-04-26 08:10 | 43.31649 | 11.96885 | 40156 ft | 432 kts | 353° |
| 2026-04-26 08:11 | 43.37635 | 11.96192 | 40154 ft | 432 kts | 353° |
| 2026-04-26 08:11 | 43.43622 | 11.95499 | 40155 ft | 431 kts | 353° |
| 2026-04-26 08:12 | 43.49602 | 11.94804 | 40151 ft | 431 kts | 353° |
| 2026-04-26 08:12 | 43.55581 | 11.94108 | 40148 ft | 431 kts | 353° |
| 2026-04-26 08:13 | 43.60549 | 11.93530 | 40146 ft | 431 kts | 353° |
| 2026-04-26 08:13 | 43.67500 | 11.92718 | 40144 ft | 431 kts | 353° |
| 2026-04-26 08:14 | 43.73476 | 11.92017 | 40142 ft | 431 kts | 353° |
| 2026-04-26 08:14 | 43.78482 | 11.91430 | 40134 ft | 431 kts | 353° |
| 2026-04-26 08:15 | 43.84458 | 11.90729 | 40130 ft | 431 kts | 353° |
| 2026-04-26 08:15 | 43.90433 | 11.90025 | 40125 ft | 431 kts | 353° |
| 2026-04-26 08:16 | 43.96370 | 11.89324 | 40118 ft | 431 kts | 353° |
| 2026-04-26 08:16 | 44.02342 | 11.88619 | 40115 ft | 431 kts | 353° |
| 2026-04-26 08:17 | 44.08318 | 11.87911 | 40109 ft | 431 kts | 353° |
| 2026-04-26 08:17 | 44.14294 | 11.87201 | 40106 ft | 431 kts | 353° |
| 2026-04-26 08:18 | 44.20273 | 11.86490 | 40107 ft | 431 kts | 353° |
| 2026-04-26 08:18 | 44.26246 | 11.85778 | 40109 ft | 431 kts | 353° |
| 2026-04-26 08:19 | 44.32219 | 11.85064 | 40121 ft | 431 kts | 353° |
| 2026-04-26 08:19 | 44.38194 | 11.84349 | 40128 ft | 431 kts | 353° |
| 2026-04-26 08:20 | 44.44171 | 11.83632 | 40119 ft | 431 kts | 353° |
| 2026-04-26 08:20 | 44.50143 | 11.82915 | 40119 ft | 431 kts | 353° |
| 2026-04-26 08:21 | 44.56120 | 11.82195 | 40116 ft | 431 kts | 353° |
| 2026-04-26 08:21 | 44.62095 | 11.81474 | 40116 ft | 431 kts | 352° |
| 2026-04-26 08:22 | 44.68073 | 11.80752 | 40118 ft | 431 kts | 352° |
| 2026-04-26 08:22 | 44.74049 | 11.80028 | 40115 ft | 432 kts | 352° |
| 2026-04-26 08:23 | 44.80045 | 11.79299 | 40119 ft | 433 kts | 352° |
| 2026-04-26 08:23 | 44.86052 | 11.78568 | 40115 ft | 433 kts | 352° |
| 2026-04-26 08:24 | 44.92057 | 11.77836 | 40119 ft | 433 kts | 352° |
| 2026-04-26 08:24 | 44.98066 | 11.77103 | 40123 ft | 433 kts | 352° |
| 2026-04-26 08:25 | 45.04067 | 11.76368 | 40113 ft | 433 kts | 352° |
| 2026-04-26 08:25 | 45.10072 | 11.75631 | 40111 ft | 433 kts | 352° |
| 2026-04-26 08:26 | 45.16073 | 11.74893 | 40112 ft | 433 kts | 352° |
| 2026-04-26 08:26 | 45.22073 | 11.74154 | 40115 ft | 433 kts | 352° |
| 2026-04-26 08:27 | 45.28070 | 11.73414 | 40104 ft | 433 kts | 352° |
| 2026-04-26 08:27 | 45.34072 | 11.72671 | 40107 ft | 433 kts | 352° |
| 2026-04-26 08:28 | 45.40075 | 11.71927 | 40096 ft | 433 kts | 352° |
| 2026-04-26 08:28 | 45.46036 | 11.71186 | 40107 ft | 433 kts | 352° |
| 2026-04-26 08:29 | 45.52085 | 11.70432 | 40101 ft | 434 kts | 352° |
| 2026-04-26 08:29 | 45.58062 | 11.69686 | 40111 ft | 434 kts | 352° |
| 2026-04-26 08:30 | 45.64079 | 11.68934 | 40110 ft | 434 kts | 352° |
| 2026-04-26 08:30 | 45.70096 | 11.68180 | 40109 ft | 434 kts | 352° |
| 2026-04-26 08:31 | 45.76110 | 11.67425 | 40120 ft | 434 kts | 352° |
| 2026-04-26 08:31 | 45.82125 | 11.66668 | 40128 ft | 434 kts | 352° |
| 2026-04-26 08:32 | 45.88137 | 11.65907 | 40132 ft | 434 kts | 352° |
| 2026-04-26 08:32 | 45.94150 | 11.65147 | 40127 ft | 433 kts | 352° |
| 2026-04-26 08:33 | 46.00159 | 11.64387 | 40129 ft | 434 kts | 351° |
| 2026-04-26 08:33 | 46.06167 | 11.63624 | 40137 ft | 433 kts | 352° |
| 2026-04-26 08:34 | 46.12163 | 11.62862 | 40138 ft | 432 kts | 352° |
| 2026-04-26 08:34 | 46.18147 | 11.61996 | 40143 ft | 431 kts | 347° |
| 2026-04-26 08:35 | 46.24033 | 11.60435 | 40139 ft | 430 kts | 346° |
| 2026-04-26 08:35 | 46.29899 | 11.58730 | 40151 ft | 430 kts | 345° |
| 2026-04-26 08:36 | 46.35756 | 11.56999 | 40153 ft | 430 kts | 345° |
| 2026-04-26 08:36 | 46.41618 | 11.55272 | 40136 ft | 430 kts | 345° |
| 2026-04-26 08:37 | 46.47479 | 11.53550 | 40136 ft | 430 kts | 345° |
| 2026-04-26 08:37 | 46.53341 | 11.51828 | 40136 ft | 430 kts | 345° |
| 2026-04-26 08:38 | 46.59197 | 11.50101 | 40150 ft | 429 kts | 346° |
| 2026-04-26 08:38 | 46.65050 | 11.48373 | 40154 ft | 429 kts | 345° |
| 2026-04-26 08:39 | 46.70906 | 11.46637 | 40162 ft | 429 kts | 345° |
| 2026-04-26 08:39 | 46.76729 | 11.44749 | 40184 ft | 429 kts | 344° |
| 2026-04-26 08:40 | 46.82556 | 11.42790 | 40214 ft | 430 kts | 343° |
| 2026-04-26 08:40 | 46.88394 | 11.40845 | 40203 ft | 430 kts | 344° |
| 2026-04-26 08:41 | 46.94230 | 11.38915 | 40213 ft | 430 kts | 344° |
| 2026-04-26 08:41 | 47.00180 | 11.37731 | 40235 ft | 435 kts | 354° |
| 2026-04-26 08:42 | 47.06233 | 11.37528 | 40221 ft | 435 kts | 356° |
| 2026-04-26 08:42 | 47.12288 | 11.37489 | 40248 ft | 436 kts | 356° |
| 2026-04-26 08:43 | 47.18301 | 11.37463 | 40236 ft | 435 kts | 356° |
| 2026-04-26 08:43 | 47.24351 | 11.37414 | 40250 ft | 435 kts | 356° |
| 2026-04-26 08:44 | 47.30392 | 11.37355 | 40240 ft | 434 kts | 356° |
| 2026-04-26 08:44 | 47.36438 | 11.37294 | 40237 ft | 434 kts | 356° |
| 2026-04-26 08:45 | 47.42479 | 11.37231 | 40234 ft | 434 kts | 356° |
| 2026-04-26 08:45 | 47.48524 | 11.37174 | 40225 ft | 434 kts | 356° |
| 2026-04-26 08:46 | 47.54557 | 11.37121 | 40232 ft | 434 kts | 356° |
| 2026-04-26 08:46 | 47.60589 | 11.37058 | 40225 ft | 433 kts | 356° |
| 2026-04-26 08:47 | 47.66627 | 11.36994 | 40241 ft | 435 kts | 356° |
| 2026-04-26 08:47 | 47.72677 | 11.36933 | 40231 ft | 435 kts | 356° |
| 2026-04-26 08:48 | 47.78713 | 11.36874 | 40232 ft | 435 kts | 356° |
| 2026-04-26 08:48 | 47.84769 | 11.36813 | 40250 ft | 434 kts | 356° |
| 2026-04-26 08:49 | 47.90817 | 11.36840 | 40256 ft | 435 kts | 357° |
| 2026-04-26 08:49 | 47.96862 | 11.37010 | 40260 ft | 434 kts | 358° |
| 2026-04-26 08:50 | 48.02906 | 11.37182 | 40266 ft | 434 kts | 358° |
| 2026-04-26 08:50 | 48.08946 | 11.37328 | 40274 ft | 434 kts | 357° |
| 2026-04-26 08:51 | 48.18000 | 11.37530 | 40263 ft | 434 kts | 357° |
| 2026-04-26 08:52 | 48.24031 | 11.37664 | 40261 ft | 434 kts | 357° |
| 2026-04-26 08:52 | 48.30063 | 11.37800 | 40258 ft | 434 kts | 357° |
| 2026-04-26 08:53 | 48.36101 | 11.37937 | 40255 ft | 434 kts | 357° |
| 2026-04-26 08:53 | 48.42130 | 11.38074 | 40256 ft | 434 kts | 357° |
| 2026-04-26 08:54 | 48.48164 | 11.38210 | 40257 ft | 434 kts | 357° |
| 2026-04-26 08:54 | 48.54154 | 11.38346 | 40268 ft | 433 kts | 358° |
| 2026-04-26 08:55 | 48.60184 | 11.38485 | 40263 ft | 433 kts | 358° |
| 2026-04-26 08:55 | 48.66212 | 11.38623 | 40265 ft | 433 kts | 358° |
| 2026-04-26 08:56 | 48.72280 | 11.38761 | 40258 ft | 433 kts | 358° |
| 2026-04-26 08:56 | 48.78271 | 11.38898 | 40269 ft | 434 kts | 358° |
| 2026-04-26 08:57 | 48.84314 | 11.39037 | 40262 ft | 434 kts | 358° |
| 2026-04-26 08:57 | 48.90361 | 11.39177 | 40265 ft | 434 kts | 358° |
| 2026-04-26 08:58 | 48.96405 | 11.39318 | 40267 ft | 434 kts | 358° |
| 2026-04-26 08:58 | 49.02448 | 11.39457 | 40255 ft | 435 kts | 358° |
| 2026-04-26 08:59 | 49.08496 | 11.39598 | 40259 ft | 435 kts | 358° |
| 2026-04-26 08:59 | 49.14538 | 11.39740 | 40260 ft | 435 kts | 358° |
| 2026-04-26 09:00 | 49.19611 | 11.39858 | 40270 ft | 435 kts | 358° |
| 2026-04-26 09:00 | 49.25654 | 11.40000 | 40266 ft | 434 kts | 358° |
| 2026-04-26 09:01 | 49.31650 | 11.40140 | 40257 ft | 434 kts | 358° |
| 2026-04-26 09:01 | 49.37690 | 11.40282 | 40269 ft | 434 kts | 358° |
| 2026-04-26 09:02 | 49.43729 | 11.40425 | 40257 ft | 434 kts | 358° |
| 2026-04-26 09:02 | 49.49758 | 11.40567 | 40257 ft | 433 kts | 358° |
| 2026-04-26 09:03 | 49.55789 | 11.40710 | 40260 ft | 433 kts | 358° |
| 2026-04-26 09:03 | 49.61819 | 11.40716 | 40262 ft | 433 kts | 356° |
| 2026-04-26 09:04 | 49.67833 | 11.40529 | 40267 ft | 432 kts | 356° |
| 2026-04-26 09:04 | 49.73840 | 11.40347 | 40265 ft | 432 kts | 356° |
| 2026-04-26 09:05 | 49.79852 | 11.40200 | 40272 ft | 432 kts | 356° |
| 2026-04-26 09:05 | 49.85861 | 11.40067 | 40271 ft | 432 kts | 356° |
| 2026-04-26 09:06 | 49.91872 | 11.39937 | 40277 ft | 432 kts | 356° |
| 2026-04-26 09:06 | 49.97885 | 11.39805 | 40283 ft | 432 kts | 356° |
| 2026-04-26 09:07 | 50.03895 | 11.39670 | 40278 ft | 432 kts | 356° |
| 2026-04-26 09:07 | 50.09910 | 11.39536 | 40298 ft | 432 kts | 356° |
| 2026-04-26 09:08 | 50.15916 | 11.39402 | 40287 ft | 431 kts | 356° |
| 2026-04-26 09:08 | 50.21905 | 11.39266 | 40290 ft | 431 kts | 356° |
| 2026-04-26 09:09 | 50.27896 | 11.39131 | 40292 ft | 430 kts | 356° |
| 2026-04-26 09:09 | 50.33885 | 11.38997 | 40299 ft | 430 kts | 356° |
| 2026-04-26 09:10 | 50.39871 | 11.38862 | 40303 ft | 430 kts | 356° |
| 2026-04-26 09:10 | 50.45850 | 11.38727 | 40294 ft | 430 kts | 356° |
| 2026-04-26 09:11 | 50.51786 | 11.38592 | 40303 ft | 430 kts | 356° |
| 2026-04-26 09:11 | 50.57767 | 11.38455 | 40302 ft | 430 kts | 356° |
| 2026-04-26 09:12 | 50.63747 | 11.38317 | 40306 ft | 430 kts | 356° |
| 2026-04-26 09:12 | 50.69726 | 11.38179 | 40306 ft | 430 kts | 356° |
| 2026-04-26 09:13 | 50.75705 | 11.38044 | 40308 ft | 430 kts | 356° |
| 2026-04-26 09:13 | 50.81683 | 11.37906 | 40317 ft | 429 kts | 356° |
| 2026-04-26 09:14 | 50.87640 | 11.37769 | 40299 ft | 428 kts | 356° |
| 2026-04-26 09:14 | 50.93594 | 11.37631 | 40303 ft | 428 kts | 356° |
| 2026-04-26 09:15 | 50.99550 | 11.37493 | 40305 ft | 429 kts | 356° |
| 2026-04-26 09:15 | 51.05522 | 11.37353 | 40324 ft | 429 kts | 356° |
| 2026-04-26 09:16 | 51.11484 | 11.37214 | 40321 ft | 428 kts | 356° |
| 2026-04-26 09:16 | 51.17440 | 11.37075 | 40324 ft | 428 kts | 356° |
| 2026-04-26 09:17 | 51.23398 | 11.36936 | 40320 ft | 428 kts | 356° |
| 2026-04-26 09:17 | 51.29353 | 11.36796 | 40314 ft | 427 kts | 356° |
| 2026-04-26 09:18 | 51.35294 | 11.36657 | 40321 ft | 427 kts | 356° |
| 2026-04-26 09:18 | 51.41231 | 11.36516 | 40320 ft | 427 kts | 356° |
| 2026-04-26 09:19 | 51.47124 | 11.36376 | 40320 ft | 427 kts | 356° |
| 2026-04-26 09:19 | 51.53059 | 11.36235 | 40319 ft | 426 kts | 356° |
| 2026-04-26 09:20 | 51.58974 | 11.36095 | 40322 ft | 425 kts | 356° |
| 2026-04-26 09:20 | 51.64877 | 11.35953 | 40318 ft | 425 kts | 356° |
| 2026-04-26 09:21 | 51.70788 | 11.35812 | 40320 ft | 425 kts | 356° |
| 2026-04-26 09:21 | 51.76692 | 11.35671 | 40321 ft | 423 kts | 356° |
| 2026-04-26 09:22 | 51.82569 | 11.35530 | 40319 ft | 422 kts | 356° |
| 2026-04-26 09:22 | 51.88401 | 11.35389 | 40319 ft | 422 kts | 356° |
| 2026-04-26 09:23 | 51.94265 | 11.35247 | 40318 ft | 422 kts | 356° |
| 2026-04-26 09:23 | 52.00132 | 11.35105 | 40324 ft | 421 kts | 356° |
| 2026-04-26 09:24 | 52.05996 | 11.35160 | 40323 ft | 423 kts | 2° |
| 2026-04-26 09:24 | 52.11858 | 11.36137 | 40319 ft | 424 kts | 3° |
| 2026-04-26 09:25 | 52.17734 | 11.37289 | 40319 ft | 426 kts | 4° |
| 2026-04-26 09:25 | 52.23610 | 11.38479 | 40322 ft | 425 kts | 4° |
| 2026-04-26 09:26 | 52.29480 | 11.39659 | 40318 ft | 424 kts | 4° |
| 2026-04-26 09:26 | 52.35340 | 11.40828 | 40317 ft | 424 kts | 4° |
| 2026-04-26 09:27 | 52.41196 | 11.41996 | 40319 ft | 424 kts | 4° |
| 2026-04-26 09:27 | 52.47055 | 11.43169 | 40324 ft | 424 kts | 3° |
| 2026-04-26 09:28 | 52.52897 | 11.44502 | 40318 ft | 425 kts | 8° |
| 2026-04-26 09:28 | 52.58684 | 11.46552 | 40316 ft | 425 kts | 9° |
| 2026-04-26 09:29 | 52.64450 | 11.48784 | 40317 ft | 426 kts | 9° |
| 2026-04-26 09:29 | 52.70211 | 11.51046 | 40336 ft | 426 kts | 9° |
| 2026-04-26 09:30 | 52.75959 | 11.53294 | 40316 ft | 424 kts | 9° |
| 2026-04-26 09:30 | 52.81660 | 11.55517 | 40318 ft | 423 kts | 9° |
| 2026-04-26 09:31 | 52.87393 | 11.57755 | 40318 ft | 423 kts | 9° |
| 2026-04-26 09:31 | 52.93128 | 11.60000 | 40316 ft | 424 kts | 9° |
| 2026-04-26 09:32 | 52.98866 | 11.62254 | 40316 ft | 424 kts | 9° |
| 2026-04-26 09:32 | 53.04601 | 11.64513 | 40317 ft | 424 kts | 9° |
| 2026-04-26 09:33 | 53.10337 | 11.66778 | 40319 ft | 424 kts | 9° |
| 2026-04-26 09:33 | 53.16071 | 11.69049 | 40317 ft | 424 kts | 9° |
| 2026-04-26 09:34 | 53.21801 | 11.71326 | 40314 ft | 422 kts | 9° |
| 2026-04-26 09:34 | 53.27511 | 11.73600 | 40314 ft | 422 kts | 9° |
| 2026-04-26 09:35 | 53.33223 | 11.75880 | 40314 ft | 422 kts | 9° |
| 2026-04-26 09:35 | 53.38929 | 11.78165 | 40316 ft | 422 kts | 9° |
| 2026-04-26 09:36 | 53.44635 | 11.80456 | 40317 ft | 421 kts | 9° |
| 2026-04-26 09:36 | 53.50322 | 11.82743 | 40315 ft | 420 kts | 9° |
| 2026-04-26 09:37 | 53.56012 | 11.85035 | 40317 ft | 420 kts | 9° |
| 2026-04-26 09:37 | 53.61698 | 11.87341 | 40317 ft | 420 kts | 9° |
| 2026-04-26 09:38 | 53.67382 | 11.89653 | 40329 ft | 420 kts | 9° |
| 2026-04-26 09:38 | 53.73017 | 11.91948 | 40314 ft | 419 kts | 9° |
| 2026-04-26 09:39 | 53.78720 | 11.94276 | 40299 ft | 418 kts | 9° |
| 2026-04-26 09:39 | 53.81532 | 11.95428 | 40086 ft | 416 kts | 9° |
| 2026-04-26 09:39 | 53.84317 | 11.96568 | 39854 ft | 418 kts | 9° |
| 2026-04-26 09:39 | 53.87146 | 11.97727 | 39622 ft | 418 kts | 9° |
| 2026-04-26 09:40 | 53.90013 | 11.98904 | 39408 ft | 419 kts | 9° |
| 2026-04-26 09:40 | 53.92799 | 12.00051 | 39182 ft | 418 kts | 8° |
| 2026-04-26 09:40 | 53.95626 | 12.01217 | 38945 ft | 417 kts | 8° |
| 2026-04-26 09:40 | 53.98434 | 12.02377 | 38528 ft | 413 kts | 8° |
| 2026-04-26 09:41 | 54.01221 | 12.03531 | 37970 ft | 412 kts | 8° |
| 2026-04-26 09:41 | 54.04004 | 12.04684 | 37389 ft | 411 kts | 8° |
| 2026-04-26 09:41 | 54.06787 | 12.05836 | 36784 ft | 411 kts | 7° |
| 2026-04-26 09:41 | 54.09567 | 12.06987 | 36188 ft | 412 kts | 7° |
| 2026-04-26 09:42 | 54.12358 | 12.08144 | 35546 ft | 413 kts | 7° |
| 2026-04-26 09:42 | 54.15160 | 12.09307 | 34866 ft | 416 kts | 6° |
| 2026-04-26 09:42 | 54.17987 | 12.10481 | 34082 ft | 420 kts | 6° |
| 2026-04-26 09:42 | 54.20835 | 12.11665 | 33273 ft | 422 kts | 6° |
| 2026-04-26 09:43 | 54.23692 | 12.12856 | 32494 ft | 423 kts | 6° |
| 2026-04-26 09:43 | 54.26559 | 12.14054 | 31683 ft | 425 kts | 7° |
| 2026-04-26 09:43 | 54.29416 | 12.15254 | 31090 ft | 421 kts | 7° |
| 2026-04-26 09:43 | 54.32247 | 12.16450 | 30528 ft | 417 kts | 7° |
| 2026-04-26 09:44 | 54.35049 | 12.17633 | 29871 ft | 413 kts | 7° |
| 2026-04-26 09:44 | 54.37817 | 12.18803 | 29271 ft | 407 kts | 7° |
| 2026-04-26 09:44 | 54.40550 | 12.19958 | 28705 ft | 402 kts | 7° |
| 2026-04-26 09:44 | 54.43247 | 12.21098 | 28085 ft | 397 kts | 7° |
| 2026-04-26 09:45 | 54.45914 | 12.22225 | 27515 ft | 392 kts | 7° |
| 2026-04-26 09:45 | 54.48547 | 12.23338 | 26929 ft | 388 kts | 7° |
| 2026-04-26 09:45 | 54.51152 | 12.24440 | 26343 ft | 384 kts | 7° |
| 2026-04-26 09:45 | 54.53732 | 12.25532 | 25758 ft | 380 kts | 7° |
| 2026-04-26 09:46 | 54.56284 | 12.26614 | 25156 ft | 376 kts | 7° |
| 2026-04-26 09:46 | 54.58815 | 12.27688 | 24567 ft | 373 kts | 7° |
| 2026-04-26 09:46 | 54.61334 | 12.28402 | 24030 ft | 363 kts | 359° |
| 2026-04-26 09:46 | 54.63829 | 12.28720 | 23423 ft | 357 kts | 358° |
| 2026-04-26 09:47 | 54.66287 | 12.28966 | 22854 ft | 351 kts | 358° |
| 2026-04-26 09:47 | 54.68704 | 12.29187 | 22299 ft | 345 kts | 358° |
| 2026-04-26 09:47 | 54.71081 | 12.29396 | 21748 ft | 339 kts | 358° |
| 2026-04-26 09:47 | 54.73419 | 12.29596 | 21214 ft | 334 kts | 358° |
| 2026-04-26 09:48 | 54.75723 | 12.29790 | 20674 ft | 330 kts | 358° |
| 2026-04-26 09:48 | 54.78009 | 12.29980 | 20133 ft | 327 kts | 358° |
| 2026-04-26 09:48 | 54.80267 | 12.30169 | 19610 ft | 324 kts | 358° |
| 2026-04-26 09:48 | 54.82509 | 12.30355 | 19088 ft | 321 kts | 358° |
| 2026-04-26 09:49 | 54.83983 | 12.30478 | 18737 ft | 319 kts | 358° |
| 2026-04-26 09:49 | 54.86195 | 12.30662 | 18167 ft | 317 kts | 358° |
| 2026-04-26 09:49 | 54.88387 | 12.30845 | 17639 ft | 314 kts | 358° |
| 2026-04-26 09:49 | 54.90552 | 12.31027 | 17131 ft | 310 kts | 358° |
| 2026-04-26 09:50 | 54.92699 | 12.31240 | 16604 ft | 308 kts | 0° |
| 2026-04-26 09:50 | 54.95456 | 12.32536 | 15902 ft | 317 kts | 20° |
| 2026-04-26 09:50 | 54.96755 | 12.33841 | 15539 ft | 320 kts | 25° |
| 2026-04-26 09:50 | 54.98609 | 12.35999 | 14991 ft | 321 kts | 27° |
| 2026-04-26 09:51 | 55.00449 | 12.38196 | 14457 ft | 320 kts | 27° |
| 2026-04-26 09:51 | 55.02282 | 12.40361 | 13925 ft | 317 kts | 27° |
| 2026-04-26 09:51 | 55.04106 | 12.42504 | 13385 ft | 314 kts | 27° |
| 2026-04-26 09:51 | 55.05905 | 12.44616 | 12873 ft | 310 kts | 27° |
| 2026-04-26 09:52 | 55.07686 | 12.46703 | 12382 ft | 307 kts | 27° |
| 2026-04-26 09:52 | 55.11195 | 12.50814 | 11375 ft | 301 kts | 28° |
| 2026-04-26 09:52 | 55.12925 | 12.52844 | 10903 ft | 298 kts | 28° |
| 2026-04-26 09:53 | 55.14636 | 12.54853 | 10569 ft | 291 kts | 28° |
| 2026-04-26 09:53 | 55.16246 | 12.56757 | 10412 ft | 275 kts | 28° |
| 2026-04-26 09:53 | 55.17789 | 12.58581 | 10295 ft | 262 kts | 28° |
| 2026-04-26 09:53 | 55.19302 | 12.60359 | 10163 ft | 266 kts | 28° |
| 2026-04-26 09:54 | 55.20853 | 12.62173 | 9937 ft | 269 kts | 28° |
| 2026-04-26 09:54 | 55.22410 | 12.64004 | 9492 ft | 268 kts | 29° |
| 2026-04-26 09:54 | 55.23993 | 12.65699 | 9102 ft | 266 kts | 25° |
| 2026-04-26 09:54 | 55.25606 | 12.67270 | 8827 ft | 265 kts | 24° |
| 2026-04-26 09:55 | 55.27215 | 12.68819 | 8533 ft | 264 kts | 24° |
| 2026-04-26 09:55 | 55.28822 | 12.70367 | 8235 ft | 263 kts | 25° |
| 2026-04-26 09:55 | 55.30419 | 12.71909 | 7943 ft | 262 kts | 25° |
| 2026-04-26 09:55 | 55.32013 | 12.73432 | 7656 ft | 260 kts | 24° |
| 2026-04-26 09:56 | 55.33700 | 12.74453 | 7349 ft | 255 kts | 6° |
| 2026-04-26 09:56 | 55.35447 | 12.74290 | 7065 ft | 252 kts | 344° |
| 2026-04-26 09:56 | 55.36997 | 12.72901 | 6778 ft | 252 kts | 322° |
| 2026-04-26 09:56 | 55.38202 | 12.70663 | 6492 ft | 253 kts | 311° |
| 2026-04-26 09:57 | 55.39290 | 12.68226 | 6203 ft | 253 kts | 309° |
| 2026-04-26 09:57 | 55.40364 | 12.65785 | 5921 ft | 252 kts | 310° |
| 2026-04-26 09:57 | 55.41428 | 12.63338 | 5626 ft | 252 kts | 307° |
| 2026-04-26 09:57 | 55.42194 | 12.60578 | 5139 ft | 254 kts | 287° |
| 2026-04-26 09:58 | 55.42244 | 12.57474 | 4765 ft | 258 kts | 262° |
| 2026-04-26 09:58 | 55.41505 | 12.54588 | 4459 ft | 264 kts | 236° |
| 2026-04-26 09:58 | 55.40210 | 12.52283 | 4163 ft | 265 kts | 224° |
| 2026-04-26 09:58 | 55.38807 | 12.50183 | 4010 ft | 265 kts | 223° |
| 2026-04-26 09:59 | 55.37401 | 12.48088 | 4006 ft | 264 kts | 223° |
| 2026-04-26 09:59 | 55.36047 | 12.45922 | 4003 ft | 263 kts | 230° |
| 2026-04-26 09:59 | 55.35202 | 12.43158 | 4014 ft | 256 kts | 259° |
| 2026-04-26 09:59 | 55.35205 | 12.40105 | 3975 ft | 249 kts | 287° |
| 2026-04-26 10:00 | 55.36006 | 12.37475 | 3885 ft | 244 kts | 310° |
| 2026-04-26 10:00 | 55.37139 | 12.35250 | 3800 ft | 244 kts | 314° |
| 2026-04-26 10:00 | 55.38309 | 12.33094 | 3723 ft | 243 kts | 315° |
| 2026-04-26 10:00 | 55.39509 | 12.30998 | 3649 ft | 243 kts | 321° |
| 2026-04-26 10:01 | 55.41036 | 12.29793 | 3570 ft | 243 kts | 350° |
| 2026-04-26 10:01 | 55.42711 | 12.30083 | 3495 ft | 247 kts | 17° |
| 2026-04-26 10:01 | 55.44287 | 12.31314 | 3418 ft | 249 kts | 24° |
| 2026-04-26 10:01 | 55.45818 | 12.32730 | 3330 ft | 249 kts | 28° |
| 2026-04-26 10:02 | 55.47051 | 12.34899 | 3258 ft | 255 kts | 55° |
| 2026-04-26 10:02 | 55.47838 | 12.37715 | 3178 ft | 257 kts | 64° |
| 2026-04-26 10:02 | 55.48500 | 12.40564 | 3036 ft | 241 kts | 65° |
| 2026-04-26 10:02 | 55.49088 | 12.43179 | 2833 ft | 219 kts | 65° |
| 2026-04-26 10:03 | 55.49654 | 12.45558 | 2589 ft | 201 kts | 58° |
| 2026-04-26 10:03 | 55.50569 | 12.47288 | 2368 ft | 190 kts | 32° |
| 2026-04-26 10:03 | 55.51634 | 12.48667 | 2089 ft | 191 kts | 33° |
| 2026-04-26 10:03 | 55.52651 | 12.50178 | 1804 ft | 191 kts | 39° |
| 2026-04-26 10:04 | 55.53632 | 12.51749 | 1527 ft | 189 kts | 37° |
| 2026-04-26 10:04 | 55.54592 | 12.53209 | 1319 ft | 173 kts | 37° |
| 2026-04-26 10:04 | 55.55464 | 12.54553 | 1065 ft | 160 kts | 36° |
| 2026-04-26 10:04 | 55.56260 | 12.55780 | 841 ft | 149 kts | 37° |
| 2026-04-26 10:05 | 55.57020 | 12.56953 | 653 ft | 141 kts | 38° |
| 2026-04-26 10:05 | 55.57728 | 12.58047 | 434 ft | 130 kts | 37° |
| 2026-04-26 10:05 | 55.58383 | 12.59058 | 277 ft | 120 kts | 36° |
| 2026-04-26 10:05 | 55.58989 | 12.59988 | 123 ft | 111 kts | 34° |
| 2026-04-26 10:06 | 55.59570 | 12.60888 | 34 ft | 107 kts | 40° |
| 2026-04-26 10:06 | 55.60038 | 12.61610 | 32 ft | 73 kts | 41° |
| 2026-04-26 10:06 | 55.60347 | 12.62090 | 29 ft | 45 kts | 41° |
| 2026-04-26 10:06 | 55.60487 | 12.62262 | 32 ft | 18 kts | 25° |
| 2026-04-26 10:07 | 55.60613 | 12.62338 | 32 ft | 20 kts | 11° |
| 2026-04-26 10:07 | 55.60756 | 12.62391 | 30 ft | 19 kts | 15° |
| 2026-04-26 10:07 | 55.60873 | 12.62523 | 30 ft | 22 kts | 39° |
| 2026-04-26 10:07 | 55.60997 | 12.62714 | 30 ft | 26 kts | 41° |
| 2026-04-26 10:08 | 55.61113 | 12.62894 | 30 ft | 21 kts | 41° |
| 2026-04-26 10:08 | 55.61230 | 12.63075 | 30 ft | 24 kts | 41° |
| 2026-04-26 10:08 | 55.61364 | 12.63282 | 30 ft | 27 kts | 41° |
| 2026-04-26 10:08 | 55.61497 | 12.63489 | 30 ft | 25 kts | 41° |
| 2026-04-26 10:09 | 55.61595 | 12.63640 | 30 ft | 16 kts | 41° |
| 2026-04-26 10:09 | 55.61689 | 12.63787 | 30 ft | 20 kts | 40° |
| 2026-04-26 10:09 | 55.61801 | 12.63958 | 30 ft | 22 kts | 42° |
| 2026-04-26 10:09 | 55.61911 | 12.64102 | 30 ft | 18 kts | 26° |
| 2026-04-26 10:10 | 55.62040 | 12.64209 | 30 ft | 22 kts | 26° |
| 2026-04-26 10:10 | 55.62160 | 12.64310 | 29 ft | 17 kts | 25° |
| 2026-04-26 10:10 | 55.62243 | 12.64400 | 28 ft | 13 kts | 49° |
| 2026-04-26 10:10 | 55.62288 | 12.64553 | 30 ft | 16 kts | 66° |
| 2026-04-26 10:11 | 55.62338 | 12.64751 | 30 ft | 16 kts | 66° |
| 2026-04-26 10:11 | 55.62339 | 12.64902 | 30 ft | 14 kts | 115° |
| 2026-04-26 10:11 | 55.62295 | 12.65030 | 30 ft | 4 kts | 123° |
| 2026-04-26 10:11 | 55.62279 | 12.65111 | 30 ft | 10 kts | 91° |
| 2026-04-26 10:12 | 55.62293 | 12.65254 | 30 ft | 14 kts | 87° |
| 2026-04-26 10:12 | 55.62295 | 12.65389 | 30 ft | 12 kts | 88° |
| 2026-04-26 10:12 | 55.62298 | 12.65565 | 30 ft | 17 kts | 88° |
| 2026-04-26 10:12 | 55.62301 | 12.65806 | 30 ft | 22 kts | 89° |
| 2026-04-26 10:13 | 55.62348 | 12.66040 | 30 ft | 20 kts | 43° |
| 2026-04-26 10:13 | 55.62431 | 12.66170 | 30 ft | 15 kts | 41° |
| 2026-04-26 10:13 | 55.62493 | 12.66212 | 30 ft | 9 kts | 347° |
| 2026-04-26 10:13 | 55.62551 | 12.66145 | 30 ft | 12 kts | 344° |
| 2026-04-26 10:14 | 55.62639 | 12.66150 | 30 ft | 13 kts | 31° |
| 2026-04-26 10:14 | 55.62720 | 12.66273 | 30 ft | 17 kts | 41° |
| 2026-04-26 10:14 | 55.62807 | 12.66408 | 30 ft | 15 kts | 41° |
| 2026-04-26 10:14 | 55.62863 | 12.66493 | 30 ft | 0 kts | 41° |
| 2026-04-26 10:15 | 55.62881 | 12.66522 | 30 ft | 7 kts | 41° |
| 2026-04-26 10:15 | 55.62885 | 12.66586 | 30 ft | 6 kts | 116° |
| 2026-04-26 10:15 | 55.62856 | 12.66650 | 30 ft | 0 kts | 129° |
| 2026-04-26 10:15 | 55.62856 | 12.66652 | 30 ft | 0 kts | 129° |